createdAt,value
2022-11-03T00:01:15.507Z,54.79
2022-11-03T00:03:46.027Z,58.73
2022-11-03T00:06:16.480Z,59.88
2022-11-03T00:08:49.636Z,60.97
2022-11-03T00:11:22.832Z,61.65
2022-11-03T00:13:53.386Z,62.45
2022-11-03T00:16:24.235Z,62.63
2022-11-03T00:18:55.214Z,63.05
2022-11-03T00:21:26.622Z,62.60
2022-11-03T00:23:59.824Z,62.33
2022-11-03T00:26:32.026Z,62.55
2022-11-03T00:29:04.101Z,62.59
2022-11-03T00:31:36.221Z,62.56
2022-11-03T00:34:07.509Z,62.73
2022-11-03T00:36:39.732Z,62.43
2022-11-03T00:39:13.866Z,62.60
2022-11-03T00:41:44.621Z,62.69
2022-11-03T00:44:15.169Z,62.49
2022-11-03T00:46:45.685Z,62.35
2022-11-03T00:49:16.272Z,62.24
2022-11-03T00:51:46.699Z,62.32
2022-11-03T00:54:19.823Z,62.31
2022-11-03T00:56:50.317Z,62.79
2022-11-03T00:59:20.863Z,62.13
2022-11-03T01:01:51.381Z,62.24
2022-11-03T01:04:34.295Z,62.23
2022-11-03T01:07:06.244Z,61.99
2022-11-03T01:09:43.572Z,61.50
2022-11-03T01:12:16.692Z,61.59
2022-11-03T01:14:49.562Z,61.98
2022-11-03T01:17:22.408Z,61.82
2022-11-03T01:19:53.034Z,62.32
2022-11-03T01:22:25.094Z,61.21
2022-11-03T01:24:58.199Z,59.06
2022-11-03T01:27:28.748Z,62.06
2022-11-03T01:29:59.423Z,62.94
2022-11-03T01:32:31.039Z,63.07
2022-11-03T01:35:01.506Z,62.69
2022-11-03T01:37:33.518Z,62.06
2022-11-03T01:40:06.926Z,61.88
2022-11-03T01:42:37.408Z,61.67
2022-11-03T01:45:08.358Z,61.45
2022-11-03T01:47:40.242Z,61.72
2022-11-03T01:50:14.508Z,61.28
2022-11-03T01:52:48.117Z,61.22
2022-11-03T01:55:25.654Z,57.95
2022-11-03T01:58:00.857Z,60.27
2022-11-03T02:00:31.677Z,62.84
2022-11-03T02:03:03.484Z,62.44
2022-11-03T02:05:34.213Z,62.11
2022-11-03T02:08:11.066Z,61.32
2022-11-03T02:10:44.441Z,60.95
2022-11-03T02:13:21.221Z,60.71
2022-11-03T02:16:12.022Z,59.76
2022-11-03T02:18:43.595Z,59.41
2022-11-03T02:21:21.972Z,59.02
2022-11-03T02:23:59.409Z,58.40
2022-11-03T02:26:33.014Z,57.95
2022-11-03T02:29:03.643Z,57.71
2022-11-03T02:31:41.310Z,57.13
2022-11-03T02:34:19.006Z,56.73
2022-11-03T02:36:53.031Z,56.56
2022-11-03T02:39:28.638Z,56.48
2022-11-03T02:42:02.114Z,56.22
2022-11-03T02:44:32.798Z,55.98
2022-11-03T02:47:06.509Z,55.88
2022-11-03T02:49:42.172Z,55.59
2022-11-03T02:52:40.854Z,55.61
2022-11-03T02:55:18.170Z,55.18
2022-11-03T02:57:58.130Z,55.24
2022-11-03T03:00:28.699Z,55.05
2022-11-03T03:03:06.484Z,54.90
2022-11-03T03:05:39.802Z,55.08
2022-11-03T03:08:13.465Z,55.02
2022-11-03T03:10:48.126Z,55.01
2022-11-03T03:13:23.526Z,54.87
2022-11-03T03:16:00.902Z,55.02
2022-11-03T03:18:40.429Z,54.70
2022-11-03T03:21:16.281Z,54.77
2022-11-03T03:23:52.220Z,54.69
2022-11-03T03:26:27.697Z,54.73
2022-11-03T03:29:06.078Z,54.74
2022-11-03T03:31:40.501Z,54.86
2022-11-03T03:34:31.246Z,54.61
2022-11-03T03:37:04.221Z,54.79
2022-11-03T03:39:38.599Z,54.90
2022-11-03T03:42:13.108Z,55.20
2022-11-03T03:44:48.029Z,55.11
2022-11-03T03:47:22.752Z,55.33
2022-11-03T03:49:53.446Z,55.16
2022-11-03T03:52:24.080Z,55.54
2022-11-03T03:54:54.970Z,55.45
2022-11-03T03:57:27.563Z,55.40
2022-11-03T04:00:00.649Z,55.70
2022-11-03T04:02:31.215Z,55.59
2022-11-03T04:05:01.748Z,55.80
2022-11-03T04:07:45.844Z,55.89
2022-11-03T04:10:16.291Z,55.72
2022-11-03T04:13:00.129Z,56.05
2022-11-03T04:15:58.074Z,56.24
2022-11-03T04:18:40.786Z,56.21
2022-11-03T04:21:27.045Z,56.20
2022-11-03T04:23:58.170Z,56.56
2022-11-03T04:26:30.169Z,56.49
2022-11-03T04:29:01.394Z,56.39
2022-11-03T04:31:39.078Z,56.93
2022-11-03T04:34:14.995Z,56.79
2022-11-03T04:36:45.397Z,56.70
2022-11-03T04:39:21.642Z,57.02
2022-11-03T04:41:52.227Z,56.88
2022-11-03T04:44:22.823Z,57.24
2022-11-03T04:46:57.551Z,57.35
2022-11-03T04:49:28.380Z,57.07
2022-11-03T04:51:58.833Z,57.82
2022-11-03T04:54:29.953Z,57.46
2022-11-03T04:57:00.448Z,57.59
2022-11-03T04:59:31.186Z,57.73
2022-11-03T05:02:04.650Z,57.45
2022-11-03T05:04:35.374Z,57.87
2022-11-03T05:07:05.840Z,57.66
2022-11-03T05:09:40.245Z,57.84
2022-11-03T05:12:13.290Z,58.02
2022-11-03T05:14:44.192Z,57.78
2022-11-03T05:17:25.887Z,58.17
2022-11-03T05:20:00.757Z,57.90
2022-11-03T05:22:36.787Z,58.20
2022-11-03T05:25:30.493Z,58.14
2022-11-03T05:28:00.943Z,57.96
2022-11-03T05:30:31.620Z,58.30
2022-11-03T05:33:04.734Z,57.98
2022-11-03T05:35:35.621Z,58.04
2022-11-03T05:38:09.541Z,58.07
2022-11-03T05:40:40.030Z,58.07
2022-11-03T05:43:13.924Z,58.27
2022-11-03T05:45:45.225Z,58.28
2022-11-03T05:48:24.222Z,58.39
2022-11-03T05:50:56.362Z,58.32
2022-11-03T05:53:31.917Z,58.60
2022-11-03T05:56:05.270Z,58.32
2022-11-03T05:58:39.724Z,58.23
2022-11-03T06:01:16.609Z,58.25
2022-11-03T06:03:50.755Z,57.79
2022-11-03T06:06:29.465Z,58.06
2022-11-03T06:09:05.702Z,58.00
2022-11-03T06:11:39.941Z,57.55
2022-11-03T06:14:21.268Z,57.32
2022-11-03T06:16:57.617Z,57.25
2022-11-03T06:19:35.985Z,56.89
2022-11-03T06:22:14.594Z,56.70
2022-11-03T06:24:45.808Z,56.48
2022-11-03T06:27:19.395Z,56.13
2022-11-03T06:29:55.301Z,55.80
2022-11-03T06:32:26.281Z,55.52
2022-11-03T06:35:01.628Z,55.27
2022-11-03T06:37:35.977Z,54.89
2022-11-03T06:40:37.218Z,54.12
2022-11-03T06:43:28.887Z,53.73
2022-11-03T06:46:01.704Z,53.84
2022-11-03T06:48:33.200Z,53.29
2022-11-03T06:51:17.455Z,52.64
2022-11-03T06:53:48.082Z,52.35
2022-11-03T06:56:21.950Z,51.85
2022-11-03T06:58:55.620Z,51.37
2022-11-03T07:01:29.771Z,51.01
2022-11-03T07:04:03.995Z,50.29
2022-11-03T07:06:39.496Z,49.58
2022-11-03T07:09:15.120Z,49.08
2022-11-03T07:11:50.110Z,47.63
2022-11-03T07:14:23.896Z,43.61
2022-11-03T07:16:57.904Z,42.13
2022-11-03T07:19:31.779Z,39.89
2022-11-03T07:22:07.807Z,38.66
2022-11-03T07:24:42.877Z,37.76
2022-11-03T07:27:24.964Z,37.47
2022-11-03T07:30:03.683Z,36.73
2022-11-03T07:32:36.638Z,37.44
2022-11-03T07:35:28.186Z,38.19
2022-11-03T07:38:07.100Z,37.71
2022-11-03T07:40:37.905Z,38.13
2022-11-03T07:43:17.620Z,37.80
2022-11-03T07:45:52.541Z,37.30
2022-11-03T07:48:25.485Z,38.82
2022-11-03T07:50:59.005Z,39.16
2022-11-03T07:53:38.859Z,39.12
2022-11-03T07:56:19.323Z,39.66
2022-11-03T07:58:52.588Z,39.61
2022-11-03T08:01:28.551Z,39.29
2022-11-03T08:04:06.062Z,39.78
2022-11-03T08:06:37.077Z,39.38
2022-11-03T08:09:10.245Z,39.74
2022-11-03T08:11:40.831Z,39.71
2022-11-03T08:14:11.313Z,39.86
2022-11-03T08:16:42.060Z,40.27
2022-11-03T08:19:12.979Z,40.17
2022-11-03T08:21:43.560Z,40.21
2022-11-03T08:24:16.848Z,40.15
2022-11-03T08:26:47.282Z,40.19
2022-11-03T08:29:17.969Z,39.63
2022-11-03T08:31:48.618Z,39.62
2022-11-03T08:34:19.083Z,39.63
2022-11-03T08:36:49.851Z,39.65
2022-11-03T08:39:23.121Z,39.40
2022-11-03T08:41:53.839Z,39.57
2022-11-03T08:44:24.372Z,39.81
2022-11-03T08:46:55.092Z,39.61
2022-11-03T08:49:25.541Z,39.71
2022-11-03T08:51:56.096Z,39.80
2022-11-03T08:54:29.205Z,39.80
2022-11-03T08:56:59.782Z,39.78
2022-11-03T08:59:30.279Z,39.96
2022-11-03T09:02:01.001Z,39.66
2022-11-03T09:04:31.557Z,39.64
2022-11-03T09:07:02.142Z,39.99
2022-11-03T09:12:25.902Z,39.71
2022-11-03T09:14:56.600Z,39.42
2022-11-03T09:17:27.663Z,39.75
2022-11-03T09:19:58.273Z,39.44
2022-11-03T09:22:28.854Z,39.77
2022-11-03T09:25:02.103Z,40.01
2022-11-03T09:27:33.498Z,39.62
2022-11-03T09:30:13.141Z,39.52
2022-11-03T09:32:44.563Z,39.84
2022-11-03T09:35:17.273Z,39.47
2022-11-03T09:37:48.123Z,39.69
2022-11-03T09:40:22.468Z,39.51
2022-11-03T09:42:53.518Z,39.14
2022-11-03T09:45:24.094Z,39.09
2022-11-03T09:47:54.781Z,39.13
2022-11-03T09:50:25.406Z,39.10
2022-11-03T09:52:56.143Z,38.85
2022-11-03T09:55:30.719Z,38.80
2022-11-03T09:58:05.402Z,38.83
2022-11-03T10:00:37.724Z,38.92
2022-11-03T10:03:08.668Z,38.91
2022-11-03T10:05:39.652Z,38.94
2022-11-03T10:08:22.417Z,38.66
2022-11-03T10:10:57.618Z,39.13
2022-11-03T10:13:33.913Z,39.05
2022-11-03T10:16:06.544Z,39.14
2022-11-03T10:18:38.750Z,38.54
2022-11-03T10:21:15.583Z,38.63
2022-11-03T10:23:46.197Z,38.60
2022-11-03T10:26:21.146Z,38.35
2022-11-03T10:29:04.552Z,37.96
2022-11-03T10:31:37.405Z,38.36
2022-11-03T10:34:09.235Z,37.82
2022-11-03T10:36:39.861Z,38.25
2022-11-03T10:39:32.503Z,37.75
2022-11-03T10:42:05.741Z,37.43
2022-11-03T10:44:36.419Z,37.44
2022-11-03T10:47:08.621Z,36.77
2022-11-03T10:49:43.634Z,37.23
2022-11-03T10:52:23.862Z,36.58
2022-11-03T10:54:56.800Z,36.32
2022-11-03T10:57:31.423Z,36.25
2022-11-03T11:00:05.164Z,35.80
2022-11-03T11:02:36.902Z,35.52
2022-11-03T11:05:18.562Z,35.66
2022-11-03T11:07:51.424Z,35.28
2022-11-03T11:10:25.376Z,35.26
2022-11-03T11:13:31.319Z,35.30
2022-11-03T11:16:03.636Z,35.13
2022-11-03T11:19:13.189Z,35.01
2022-11-03T11:22:02.073Z,33.95
2022-11-03T11:25:00.730Z,33.60
2022-11-03T11:27:59.777Z,34.03
2022-11-03T11:31:05.923Z,33.57
2022-11-03T11:33:36.361Z,32.61
2022-11-03T11:36:26.470Z,33.84
2022-11-03T11:39:01.582Z,33.76
2022-11-03T11:42:02.142Z,32.48
2022-11-03T11:44:54.237Z,32.96
2022-11-03T11:47:36.703Z,33.04
2022-11-03T11:50:34.487Z,32.82
2022-11-03T11:53:30.613Z,32.80
2022-11-03T11:56:04.694Z,32.97
2022-11-03T11:58:43.712Z,33.10
2022-11-03T12:01:27.079Z,32.72
2022-11-03T12:04:02.469Z,33.28
2022-11-03T12:06:37.821Z,33.09
2022-11-03T12:09:10.662Z,32.88
2022-11-03T12:11:46.437Z,32.97
2022-11-03T12:14:28.675Z,32.83
2022-11-03T12:16:59.973Z,32.42
2022-11-03T12:19:49.251Z,31.54
2022-11-03T12:22:44.336Z,31.09
2022-11-03T12:25:37.098Z,30.87
2022-11-03T12:28:08.119Z,30.02
2022-11-03T12:30:40.273Z,30.86
2022-11-03T12:33:11.258Z,30.46
2022-11-03T12:35:44.587Z,30.54
2022-11-03T12:38:15.181Z,30.69
2022-11-03T12:40:45.742Z,31.47
2022-11-03T12:43:16.434Z,31.42
2022-11-03T12:45:47.008Z,30.97
2022-11-03T12:48:19.830Z,31.26
2022-11-03T12:50:53.002Z,31.39
2022-11-03T12:53:23.628Z,31.96
2022-11-03T12:55:54.290Z,32.06
2022-11-03T12:58:24.890Z,32.09
2022-11-03T13:01:01.406Z,32.26
2022-11-03T13:03:33.115Z,32.82
2022-11-03T13:06:10.416Z,32.64
2022-11-03T13:08:41.384Z,32.89
2022-11-03T13:11:32.098Z,32.63
2022-11-03T13:14:02.667Z,32.50
2022-11-03T13:16:33.198Z,32.80
2022-11-03T13:19:04.039Z,33.02
2022-11-03T13:21:37.463Z,33.61
2022-11-03T13:24:08.797Z,33.40
2022-11-03T13:26:39.358Z,33.36
2022-11-03T13:29:09.897Z,33.15
2022-11-03T13:31:40.372Z,33.58
2022-11-03T13:34:10.861Z,33.57
2022-11-03T13:36:44.140Z,34.09
2022-11-03T13:39:15.408Z,34.47
2022-11-03T13:41:46.007Z,34.45
2022-11-03T13:44:16.979Z,33.98
2022-11-03T13:46:47.602Z,33.99
2022-11-03T13:52:12.371Z,34.44
2022-11-03T14:00:24.229Z,34.64
2022-11-03T14:05:45.590Z,34.95
2022-11-03T14:08:19.054Z,35.25
2022-11-03T14:10:50.021Z,35.06
2022-11-03T14:13:17.912Z,34.99
2022-11-03T14:15:56.843Z,35.07
2022-11-03T14:18:27.322Z,35.22
2022-11-03T14:20:57.819Z,35.90
2022-11-03T14:23:31.102Z,35.65
2022-11-03T14:26:14.192Z,35.56
2022-11-03T14:28:52.167Z,35.68
2022-11-03T14:31:30.374Z,35.69
2022-11-03T14:34:05.020Z,35.75
2022-11-03T14:36:36.365Z,35.71
2022-11-03T14:39:09.595Z,35.90
2022-11-03T14:41:52.435Z,35.92
2022-11-03T14:44:22.958Z,35.75
2022-11-03T14:46:53.421Z,36.17
2022-11-03T14:49:24.146Z,36.22
2022-11-03T14:51:56.975Z,36.00
2022-11-03T14:54:30.373Z,36.01
2022-11-03T14:57:01.126Z,35.87
2022-11-03T14:59:31.943Z,36.38
2022-11-03T15:02:03.612Z,36.21
2022-11-03T15:04:34.183Z,36.64
2022-11-03T15:07:04.809Z,36.48
2022-11-03T15:09:37.926Z,36.37
2022-11-03T15:12:08.787Z,36.68
2022-11-03T15:14:39.267Z,36.75
2022-11-03T15:17:09.919Z,37.00
2022-11-03T15:19:40.371Z,37.03
2022-11-03T15:22:11.066Z,37.02
2022-11-03T15:27:35.205Z,37.43
2022-11-03T15:30:05.764Z,37.42
2022-11-03T15:32:36.675Z,37.49
2022-11-03T15:35:07.801Z,37.53
2022-11-03T15:37:38.463Z,37.60
2022-11-03T15:40:15.469Z,38.15
2022-11-03T15:42:46.093Z,38.14
2022-11-03T15:45:17.814Z,38.34
2022-11-03T15:47:48.504Z,38.43
2022-11-03T15:50:19.197Z,38.53
2022-11-03T15:52:49.867Z,38.70
2022-11-03T15:55:23.329Z,38.82
2022-11-03T15:57:54.217Z,39.12
2022-11-03T16:00:24.817Z,39.38
2022-11-03T16:02:55.576Z,39.33
2022-11-03T16:05:26.140Z,39.44
2022-11-03T16:07:56.871Z,39.84
2022-11-03T16:10:30.023Z,40.12
2022-11-03T16:13:00.606Z,40.13
2022-11-03T16:15:31.081Z,39.83
2022-11-03T16:18:02.932Z,40.49
2022-11-03T16:20:33.625Z,40.53
2022-11-03T16:23:04.212Z,40.52
2022-11-03T16:25:37.543Z,40.58
2022-11-03T16:28:08.611Z,40.91
2022-11-03T16:30:39.375Z,40.60
2022-11-03T16:33:10.367Z,40.80
2022-11-03T16:35:40.840Z,41.27
2022-11-03T16:38:11.406Z,41.34
2022-11-03T16:40:44.777Z,41.65
2022-11-03T16:43:15.589Z,41.53
2022-11-03T16:45:46.264Z,41.54
2022-11-03T16:48:16.841Z,41.90
2022-11-03T16:50:47.687Z,41.99
2022-11-03T16:53:19.167Z,41.95
2022-11-03T16:55:52.800Z,42.19
2022-11-03T16:58:23.450Z,42.49
2022-11-03T17:00:54.037Z,42.55
2022-11-03T17:03:24.666Z,42.75
2022-11-03T17:05:55.261Z,42.65
2022-11-03T17:08:51.392Z,42.99
2022-11-03T17:11:36.184Z,43.01
2022-11-03T17:14:13.428Z,43.14
2022-11-03T17:16:46.869Z,43.48
2022-11-03T17:19:17.626Z,43.52
2022-11-03T17:21:48.087Z,43.80
2022-11-03T17:24:18.854Z,43.83
2022-11-03T17:26:59.098Z,44.17
2022-11-03T17:29:36.601Z,44.28
2022-11-03T17:32:11.018Z,44.04
2022-11-03T17:34:41.794Z,44.13
2022-11-03T17:37:12.522Z,44.19
2022-11-03T17:39:43.418Z,44.33
2022-11-03T17:42:21.990Z,44.70
2022-11-03T17:44:54.058Z,44.57
2022-11-03T17:47:25.636Z,44.57
2022-11-03T17:49:56.788Z,44.71
2022-11-03T17:52:30.154Z,44.88
2022-11-03T17:55:02.502Z,45.20
2022-11-03T17:57:36.395Z,45.47
2022-11-03T18:00:08.194Z,45.54
2022-11-03T18:02:43.132Z,45.60
2022-11-03T18:05:26.720Z,46.08
2022-11-03T18:07:57.809Z,46.33
2022-11-03T18:10:31.156Z,46.22
2022-11-03T18:13:16.849Z,46.33
2022-11-03T18:15:49.887Z,46.69
2022-11-03T18:18:23.737Z,46.65
2022-11-03T18:20:56.434Z,47.66
2022-11-03T18:23:28.720Z,50.51
2022-11-03T18:25:59.606Z,55.42
2022-11-03T18:28:32.831Z,59.15
2022-11-03T18:31:03.488Z,58.51
2022-11-03T18:33:36.180Z,59.81
2022-11-03T18:36:09.476Z,62.11
2022-11-03T18:38:42.907Z,63.23
2022-11-03T18:41:28.768Z,63.74
2022-11-03T18:44:02.067Z,64.81
2022-11-03T18:46:35.825Z,65.64
2022-11-03T18:49:06.801Z,66.99
2022-11-03T18:51:38.451Z,67.84
2022-11-03T18:54:09.531Z,74.61
2022-11-03T18:56:40.185Z,68.49
2022-11-03T18:59:22.743Z,66.70
2022-11-03T19:01:53.640Z,65.05
2022-11-03T19:04:24.407Z,64.07
2022-11-03T19:06:56.045Z,63.10
2022-11-03T19:09:28.873Z,62.16
2022-11-03T19:12:00.664Z,61.35
2022-11-03T19:14:35.892Z,60.75
2022-11-03T19:17:22.262Z,60.26
2022-11-03T19:19:54.450Z,59.09
2022-11-03T19:22:26.527Z,58.75
2022-11-03T19:24:57.147Z,59.29
2022-11-03T19:27:30.350Z,60.37
2022-11-03T19:30:05.793Z,59.19
2022-11-03T19:32:37.793Z,59.56
2022-11-03T19:35:10.440Z,58.81
2022-11-03T19:37:40.962Z,58.53
2022-11-03T19:40:16.038Z,58.29
2022-11-03T19:42:45.185Z,58.24
2022-11-03T19:45:21.132Z,58.12
2022-11-03T19:48:23.185Z,58.04
2022-11-03T19:50:47.596Z,57.73
2022-11-03T19:53:23.488Z,57.34
2022-11-03T19:55:54.229Z,57.13
2022-11-03T19:58:26.514Z,56.70
2022-11-03T20:01:05.573Z,56.64
2022-11-03T20:03:38.991Z,56.51
2022-11-03T20:06:14.159Z,56.37
2022-11-03T20:08:47.551Z,56.14
2022-11-03T20:11:18.050Z,56.15
2022-11-03T20:13:48.730Z,55.92
2022-11-03T20:16:21.867Z,56.06
2022-11-03T20:18:53.474Z,55.83
2022-11-03T20:21:27.854Z,55.89
2022-11-03T20:24:03.839Z,56.12
2022-11-03T20:26:34.586Z,56.49
2022-11-03T20:29:05.669Z,56.35
2022-11-03T20:31:38.850Z,56.68
2022-11-03T20:34:09.434Z,56.79
2022-11-03T20:36:40.025Z,56.74
2022-11-03T20:39:15.769Z,56.91
2022-11-03T20:41:50.218Z,57.63
2022-11-03T20:44:20.725Z,57.21
2022-11-03T20:46:54.130Z,57.41
2022-11-03T20:49:24.696Z,57.47
2022-11-03T20:51:55.785Z,57.75
2022-11-03T20:54:26.261Z,57.58
2022-11-03T20:56:56.841Z,58.53
2022-11-03T20:59:30.146Z,58.73
2022-11-03T21:02:04.449Z,58.39
2022-11-03T21:04:35.744Z,58.77
2022-11-03T21:07:06.351Z,58.90
2022-11-03T21:09:36.851Z,58.86
2022-11-03T21:12:08.575Z,59.10
2022-11-03T21:14:39.386Z,58.95
2022-11-03T21:17:29.508Z,58.77
2022-11-03T21:20:08.196Z,58.53
2022-11-03T21:22:55.898Z,58.57
2022-11-03T21:25:27.051Z,58.68
2022-11-03T21:27:57.923Z,58.62
2022-11-03T21:30:28.573Z,58.78
2022-11-03T21:33:01.885Z,58.90
2022-11-03T21:35:32.487Z,58.73
2022-11-03T21:38:04.114Z,58.58
2022-11-03T21:40:34.752Z,58.40
2022-11-03T21:43:18.171Z,58.45
2022-11-03T21:45:49.696Z,58.43
2022-11-03T21:48:35.227Z,58.25
2022-11-03T21:51:05.753Z,58.58
2022-11-03T21:53:36.285Z,58.61
2022-11-03T21:56:11.641Z,58.15
2022-11-03T21:58:45.308Z,58.15
2022-11-03T22:01:16.522Z,58.29
2022-11-03T22:03:49.950Z,57.83
2022-11-03T22:06:20.461Z,57.46
2022-11-03T22:08:51.435Z,57.71
2022-11-03T22:11:24.995Z,57.89
2022-11-03T22:13:59.370Z,57.88
2022-11-03T22:16:37.153Z,58.08
2022-11-03T22:19:26.582Z,58.10
2022-11-03T22:22:09.904Z,58.12
2022-11-03T22:24:53.068Z,58.09
2022-11-03T22:27:23.654Z,58.27
2022-11-03T22:30:06.591Z,58.11
2022-11-03T22:32:37.065Z,57.68
2022-11-03T22:35:25.316Z,57.56
2022-11-03T22:38:06.441Z,57.66
2022-11-03T22:40:50.644Z,57.41
2022-11-03T22:43:35.282Z,57.38
2022-11-03T22:46:06.654Z,57.37
2022-11-03T22:48:37.225Z,57.35
2022-11-03T22:51:13.350Z,55.39
2022-11-03T22:53:56.674Z,57.64
2022-11-03T22:56:28.711Z,60.32
2022-11-03T22:59:00.088Z,63.29
2022-11-03T23:01:30.833Z,66.20
2022-11-03T23:04:01.933Z,66.67
2022-11-03T23:06:40.622Z,67.25
2022-11-03T23:09:12.363Z,67.76
2022-11-03T23:11:43.006Z,68.38
2022-11-03T23:14:14.920Z,68.66
2022-11-03T23:16:47.836Z,69.71
2022-11-03T23:19:31.692Z,70.11
2022-11-03T23:22:04.855Z,72.44
2022-11-03T23:24:47.660Z,75.39
2022-11-03T23:27:18.122Z,76.58
2022-11-03T23:29:48.597Z,76.73
2022-11-03T23:32:19.236Z,77.82
2022-11-03T23:34:50.499Z,78.01
2022-11-03T23:37:24.063Z,78.29
2022-11-03T23:39:54.553Z,78.97
2022-11-03T23:42:25.192Z,77.37
2022-11-03T23:45:08.005Z,77.24
2022-11-03T23:47:50.608Z,77.72
2022-11-03T23:50:21.091Z,77.19
2022-11-03T23:52:54.296Z,77.28
2022-11-03T23:55:24.833Z,78.19
2022-11-03T23:58:07.966Z,78.54
